LEVCBGBW

Guest
Details From LEVC - Valencia
To BGBW - Narsarsuaq
Flight Number -
Tags Generated
Created
Modified
Stats Distance 2,094 nm / 3,878 km
Max Altitude 0 ft / 0 m
Waypoints 5
Social Downloads 0
Likes 0
Share VATSIM

Download

Looking for another format? Having issues loading an existing format? Contact us
Advertisement - Login to hide

Notes

Generated

Route

LEVC UNGAS 51N15 NA BGBW

ID Type Via Altitude Latitude Longitude Leg Dist Tot Dist Heading (true) Name
O LEVC APT - 0 ft / 0 m 39.49655˚ -0.50070˚ - 0 nm - -
UNGAS FIX - 0 ft / 0 m 42.67604˚ -3.69323˚ 239 nm 239 nm 324° / 322° -
51N15 FIX - 0 ft / 0 m 51.00000˚ -15.00000˚ 680 nm 920 nm 321° / 313° -
NA NDB - 0 ft / 0 m 61.17074˚ -45.41295˚ 1172 nm 2092 nm 313° / 288° NARSARSUAQ NDB
O BGBW APT - 0 ft / 0 m 61.15435˚ -45.43692˚ 1 nm 2093 nm 215° / 215° -

Altitude Profile

Advertisement - Login to hide

Weather


0- 5 10 15 20 25 30 35+ Temperature / ° C

Clouds and Precipitation
Forecast for 2017-12-15 06:00 UTC. Updated 2 hours ago

Ground ~20,000 ft ~40,000 ft Winds

LEVC

Details ICAO LEVC (VLC)
Name Valencia
Region Spain
Timezone Europe/Madrid (UTC+1.0)
Stats Elevation 225 ft / 69 m (AMSL)
Location 39.488236° -0.483892°
Runways 2
Magnetic Variation 0.192° E

METAR

LEVC 150700Z 28012KT CAVOK 15/07 Q1008 NOSIG

Decode

TAF

TAF LEVC 150500Z 1506/1606 26014KT 9999 FEW025 TX19/1513Z TN05/1606Z TEMPO 1506/1512 28018G30KT BECMG 1514/1516 30006KT

Decode

Departure Runways

ID Width Length Bearing (true) Bearing (mag) Surface Threshold Offset Overrun Length
12 148 ft / 45 m 10,555 ft / 3,217 m 116.25° 116.06° Asphalt 0 ft / 0 m 646 ft / 197 m
22 154 ft / 47 m 3,828 ft / 1,167 m 217.99° 217.80° Asphalt 0 ft / 0 m 0 ft / 0 m
30 148 ft / 45 m 10,555 ft / 3,217 m 296.27° 296.08° Asphalt 1,001 ft / 305 m 932 ft / 284 m
4 154 ft / 47 m 3,828 ft / 1,167 m 37.98° 37.79° Asphalt 0 ft / 0 m 0 ft / 0 m

BGBW

Details ICAO BGBW (UAK)
Name Narsarsuaq
Region Greenland
Timezone America/Godthab (UTC-3.0)
Stats Elevation 112 ft / 34 m (AMSL)
Location 61.160516° -45.425976°
Runways 1
Magnetic Variation 22.905° W

METAR

BGBW 150650Z AUTO 08015KT 9999NDV OVC075/// 04/M12 Q1001

Decode

TAF

Not found

Destination Runways

ID Width Length Bearing (true) Bearing (mag) Surface Threshold Offset Overrun Length
07 148 ft / 45 m 5,921 ft / 1,805 m 40.57° 63.47° Concrete 0 ft / 0 m 0 ft / 0 m
25 148 ft / 45 m 5,921 ft / 1,805 m 220.58° 243.48° Concrete 0 ft / 0 m 279 ft / 85 m